createdAt,value
2018-11-20T00:03:42.904Z,8.80
2018-11-20T00:10:06.314Z,9.67
2018-11-20T00:16:47.637Z,8.87
2018-11-20T00:23:22.760Z,10.47
2018-11-20T00:29:54.649Z,9.13
2018-11-20T00:36:20.631Z,9.03
2018-11-20T00:42:41.060Z,9.17
2018-11-20T00:49:04.477Z,9.53
2018-11-20T00:56:04.144Z,10.13
2018-11-20T01:02:33.449Z,10.03
2018-11-20T01:08:58.183Z,10.87
2018-11-20T01:15:36.622Z,10.77
2018-11-20T01:21:58.785Z,11.07
2018-11-20T01:28:28.194Z,11.47
2018-11-20T01:34:54.263Z,11.50
2018-11-20T01:41:13.180Z,11.97
2018-11-20T01:47:28.315Z,11.17
2018-11-20T01:54:10.082Z,11.23
2018-11-20T02:00:51.511Z,12.97
2018-11-20T02:07:13.618Z,13.43
2018-11-20T02:14:03.808Z,12.90
2018-11-20T02:20:27.744Z,11.50
2018-11-20T02:27:00.267Z,12.90
2018-11-20T02:33:38.230Z,12.50
2018-11-20T02:40:04.365Z,12.57
2018-11-20T02:46:33.587Z,12.77
2018-11-20T02:52:57.014Z,12.20
2018-11-20T02:59:18.705Z,13.53
2018-11-20T03:05:37.913Z,13.00
2018-11-20T03:12:10.030Z,12.50
2018-11-20T03:18:33.540Z,11.97
2018-11-20T03:24:49.225Z,13.37
2018-11-20T03:31:32.831Z,12.57
2018-11-20T03:38:08.198Z,13.27
2018-11-20T03:44:28.934Z,13.77
2018-11-20T03:50:50.824Z,13.50
2018-11-20T03:57:11.340Z,12.83
2018-11-20T04:03:34.758Z,14.27
2018-11-20T04:10:01.259Z,13.93
2018-11-20T04:16:17.079Z,14.87
2018-11-20T04:22:37.114Z,14.90
2018-11-20T04:28:53.136Z,14.73
2018-11-20T04:35:30.037Z,16.43
2018-11-20T04:41:54.165Z,17.90
2018-11-20T04:48:14.925Z,18.50
2018-11-20T04:54:47.216Z,19.50
2018-11-20T05:01:17.065Z,18.03
2018-11-20T05:07:46.585Z,19.47
2018-11-20T05:14:08.622Z,20.63
2018-11-20T05:20:43.963Z,20.37
2018-11-20T05:27:08.801Z,20.20
2018-11-20T05:33:31.049Z,19.80
2018-11-20T05:40:00.014Z,21.33
2018-11-20T05:46:29.169Z,20.83
2018-11-20T05:52:55.249Z,22.93
2018-11-20T05:59:36.253Z,23.17
2018-11-20T06:06:05.608Z,23.30
2018-11-20T06:12:31.578Z,25.03
2018-11-20T06:18:53.209Z,24.23
2018-11-20T06:25:14.714Z,26.90
2018-11-20T06:31:47.251Z,25.80
2018-11-20T06:38:01.586Z,26.90
2018-11-20T06:44:23.934Z,28.33
2018-11-20T06:50:48.236Z,27.93
2018-11-20T06:57:17.642Z,27.43
2018-11-20T07:03:52.980Z,27.43
2018-11-20T07:10:09.507Z,27.13
2018-11-20T07:16:53.229Z,27.17
2018-11-20T07:23:14.173Z,25.87
2018-11-20T07:36:03.664Z,25.10
2018-11-20T07:42:25.410Z,25.63
2018-11-20T07:48:54.803Z,26.13
2018-11-20T07:55:20.881Z,26.00
2018-11-20T08:01:41.894Z,26.53
2018-11-20T08:08:14.072Z,30.27
2018-11-20T08:14:51.860Z,27.27
2018-11-20T08:21:27.263Z,26.07
2018-11-20T08:27:45.526Z,28.17
2018-11-20T08:34:08.834Z,25.90
2018-11-20T08:40:33.821Z,25.17
2018-11-20T08:46:59.961Z,26.63
2018-11-20T08:53:22.163Z,27.80
2018-11-20T08:59:54.333Z,27.23
2018-11-20T09:06:29.535Z,26.33
2018-11-20T09:12:51.286Z,26.17
2018-11-20T09:19:32.566Z,25.33
2018-11-20T09:25:55.480Z,25.47
2018-11-20T09:32:27.683Z,27.10
2018-11-20T09:39:05.970Z,26.57
2018-11-20T09:45:56.574Z,27.13
2018-11-20T09:52:18.777Z,26.50
2018-11-20T09:58:33.728Z,27.30
2018-11-20T10:05:12.173Z,27.77
2018-11-20T10:11:53.778Z,26.30
2018-11-20T10:18:19.890Z,27.43
2018-11-20T10:24:36.327Z,25.60
2018-11-20T10:31:06.931Z,24.63
2018-11-20T10:37:19.160Z,27.00
2018-11-20T10:43:56.316Z,26.07
2018-11-20T10:50:37.873Z,26.53
2018-11-20T10:56:59.761Z,25.93
2018-11-20T11:03:25.852Z,30.67
2018-11-20T11:10:04.424Z,29.33
2018-11-20T11:16:39.066Z,28.33
2018-11-20T11:23:09.703Z,26.10
2018-11-20T11:29:31.616Z,28.30
2018-11-20T11:35:56.676Z,28.33
2018-11-20T11:42:21.733Z,27.13
2018-11-20T11:48:51.323Z,25.80
2018-11-20T11:55:24.204Z,28.50
2018-11-20T12:08:22.512Z,28.37
2018-11-20T12:14:51.947Z,27.70
2018-11-20T12:21:17.904Z,29.40
2018-11-20T12:27:40.435Z,29.57
2018-11-20T12:34:03.478Z,28.63
2018-11-20T12:40:42.204Z,29.03
2018-11-20T12:47:09.338Z,29.40
2018-11-20T12:53:31.918Z,29.40
2018-11-20T12:59:58.662Z,30.20
2018-11-20T13:06:37.202Z,28.50
2018-11-20T13:13:01.020Z,27.63
2018-11-20T13:19:25.468Z,29.97
2018-11-20T13:25:46.745Z,29.87
2018-11-20T13:32:08.830Z,30.20
2018-11-20T13:38:52.022Z,28.27
2018-11-20T13:45:18.470Z,30.73
2018-11-20T13:51:35.831Z,28.23
2018-11-20T13:58:03.719Z,30.07
2018-11-20T14:04:31.812Z,29.73
2018-11-20T14:10:55.253Z,33.13
2018-11-20T14:17:30.866Z,31.20
2018-11-20T14:23:53.131Z,31.40
2018-11-20T14:30:14.993Z,31.33
2018-11-20T14:36:37.047Z,29.93
2018-11-20T14:43:10.784Z,29.10
2018-11-20T14:49:40.971Z,32.27
2018-11-20T14:55:59.153Z,32.37
2018-11-20T15:02:37.176Z,30.43
2018-11-20T15:09:06.326Z,30.50
2018-11-20T15:15:31.957Z,32.53
2018-11-20T15:22:01.297Z,32.20
2018-11-20T15:28:24.817Z,33.37
2018-11-20T15:34:46.714Z,29.20
2018-11-20T15:40:57.955Z,31.90
2018-11-20T15:47:24.073Z,32.17
2018-11-20T15:53:53.415Z,32.20
2018-11-20T16:00:15.149Z,30.90
2018-11-20T16:06:44.373Z,32.30
2018-11-20T16:12:57.330Z,30.80
2018-11-20T16:19:29.784Z,31.37
2018-11-20T16:26:02.038Z,33.37
2018-11-20T16:32:34.326Z,35.03
2018-11-20T16:38:57.920Z,35.07
2018-11-20T16:45:24.264Z,33.73
2018-11-20T16:51:39.156Z,35.20
2018-11-20T16:58:01.258Z,32.60
2018-11-20T17:04:23.688Z,34.53
2018-11-20T17:10:47.108Z,32.70
2018-11-20T17:17:09.611Z,37.87
2018-11-20T17:23:33.441Z,33.10
2018-11-20T17:29:55.978Z,35.77
2018-11-20T17:36:22.414Z,33.60
2018-11-20T17:42:54.429Z,32.87
2018-11-20T17:49:20.851Z,39.70
2018-11-20T17:55:53.243Z,35.00
2018-11-20T18:02:13.090Z,37.00
2018-11-20T18:08:54.595Z,33.77
2018-11-20T18:15:26.624Z,33.40
2018-11-20T18:21:58.898Z,36.77
2018-11-20T18:28:19.300Z,35.30
2018-11-20T18:34:32.549Z,33.67
2018-11-20T18:40:55.949Z,42.30
2018-11-20T18:47:31.416Z,36.33
2018-11-20T18:53:53.543Z,36.90
2018-11-20T19:00:32.027Z,37.93
2018-11-20T19:06:58.356Z,36.03
2018-11-20T19:13:59.017Z,41.97
2018-11-20T19:20:20.039Z,44.27
2018-11-20T19:26:32.254Z,41.53
2018-11-20T19:32:53.506Z,47.80
2018-11-20T19:39:14.764Z,41.37
2018-11-20T19:45:36.373Z,37.47
2018-11-20T19:52:08.092Z,43.53
2018-11-20T19:58:32.839Z,40.63
2018-11-20T20:04:55.409Z,38.63
2018-11-20T20:11:14.484Z,39.50
2018-11-20T20:17:40.552Z,36.90
2018-11-20T20:24:01.093Z,40.67
2018-11-20T20:30:21.346Z,33.70
2018-11-20T20:36:46.663Z,35.60
2018-11-20T20:43:11.794Z,33.60
2018-11-20T20:49:21.726Z,37.37
2018-11-20T20:55:46.854Z,42.97
2018-11-20T21:02:08.072Z,36.50
2018-11-20T21:08:45.288Z,34.77
2018-11-20T21:15:05.629Z,41.97
2018-11-20T21:21:23.421Z,47.43
2018-11-20T21:27:48.683Z,48.57
2018-11-20T21:34:11.397Z,42.57
2018-11-20T21:40:48.911Z,39.63
2018-11-20T21:47:20.545Z,41.30
2018-11-20T21:53:37.501Z,38.93
2018-11-20T22:00:09.698Z,39.70
2018-11-20T22:06:35.099Z,42.10
2018-11-20T22:13:06.999Z,39.30
2018-11-20T22:19:28.179Z,37.83
2018-11-20T22:25:49.438Z,36.27
2018-11-20T22:32:14.932Z,38.37
2018-11-20T22:38:35.954Z,39.20
2018-11-20T22:44:57.235Z,40.83
2018-11-20T22:51:31.970Z,39.70
2018-11-20T22:57:48.465Z,40.13
2018-11-20T23:04:09.889Z,35.17
2018-11-20T23:10:18.107Z,37.83
2018-11-20T23:16:21.558Z,40.43
2018-11-20T23:22:25.202Z,36.77
2018-11-20T23:28:28.662Z,40.10
2018-11-20T23:34:32.083Z,41.77
2018-11-20T23:40:35.509Z,37.87
2018-11-20T23:46:39.312Z,38.47
2018-11-20T23:52:42.770Z,42.90
2018-11-20T23:58:46.336Z,39.97
